Time;durP1;ratioP1;P1;durP2;ratioP2;P2;SDS_P1;SDS_P2;PMS_P1;PMS_P2;Temp;Humidity;BMP_temperature;BMP_pressure;BME280_temperature;BME280_humidity;BME280_pressure;Samples;Min_cycle;Max_cycle;Signal;HPM_P1;HPM_P2
2022/10/13 00:01:53;;;;;;;9.77;5.93;;;10.00;99.90;;;;;;5096989;28;20946;-69
2022/10/13 00:04:20;;;;;;;10.20;5.70;;;10.00;99.90;;;;;;5097327;28;20474;-69
2022/10/13 00:06:47;;;;;;;9.47;5.83;;;10.00;99.90;;;;;;5097006;28;20961;-68
2022/10/13 00:09:14;;;;;;;10.60;5.37;;;10.00;99.90;;;;;;5097379;28;20533;-69
2022/10/13 00:11:41;;;;;;;7.90;5.30;;;10.00;99.90;;;;;;5096960;28;20488;-70
2022/10/13 00:14:09;;;;;;;8.83;6.30;;;9.90;99.90;;;;;;5096065;28;20453;-69
2022/10/13 00:16:36;;;;;;;12.27;6.17;;;10.00;99.90;;;;;;5096470;28;20767;-69
2022/10/13 00:19:03;;;;;;;9.07;6.23;;;9.90;99.90;;;;;;5096725;28;20533;-69
2022/10/13 00:21:30;;;;;;;13.90;6.57;;;9.90;99.90;;;;;;5095950;28;20468;-69
2022/10/13 00:23:57;;;;;;;8.00;5.50;;;9.90;99.90;;;;;;5096140;28;20491;-69
2022/10/13 00:26:25;;;;;;;13.13;5.80;;;9.90;99.90;;;;;;5095952;28;20441;-69
2022/10/13 00:28:52;;;;;;;9.03;5.70;;;9.80;99.90;;;;;;5096447;28;20538;-69
2022/10/13 00:31:22;;;;;;;10.13;5.40;;;9.80;99.90;;;;;;5096005;28;20458;-69
2022/10/13 00:33:49;;;;;;;11.00;6.67;;;9.80;99.90;;;;;;5095714;28;20839;-68
2022/10/13 00:36:17;;;;;;;12.50;5.90;;;9.80;99.90;;;;;;5095769;28;20526;-69
2022/10/13 00:38:43;;;;;;;13.00;6.50;;;9.70;99.90;;;;;;5096072;28;20453;-69
2022/10/13 00:41:10;;;;;;;6.50;5.10;;;9.70;99.90;;;;;;5095894;28;20492;-69
2022/10/13 00:43:56;;;;;;;10.00;6.23;;;9.70;99.90;;;;;;5095413;28;20540;-68
2022/10/13 00:46:27;;;;;;;8.83;5.60;;;9.60;99.90;;;;;;5095574;28;20434;-68
2022/10/13 00:48:55;;;;;;;8.13;6.07;;;9.60;99.90;;;;;;5095705;28;20437;-69
2022/10/13 00:51:26;;;;;;;11.43;6.27;;;9.60;99.90;;;;;;5095669;28;20781;-69
2022/10/13 00:53:54;;;;;;;11.00;6.23;;;9.60;99.90;;;;;;5094564;28;20442;-68
2022/10/13 00:56:23;;;;;;;13.47;6.13;;;9.50;99.90;;;;;;5095063;28;20489;-70
2022/10/13 00:58:50;;;;;;;10.27;6.00;;;9.50;99.90;;;;;;5095005;28;20533;-69
2022/10/13 01:01:18;;;;;;;9.20;6.70;;;9.50;99.90;;;;;;5094690;28;20939;-69
2022/10/13 01:03:47;;;;;;;9.73;6.90;;;9.40;99.90;;;;;;5095096;28;20465;-70
2022/10/13 01:06:15;;;;;;;10.43;6.63;;;9.50;99.90;;;;;;5094581;28;20487;-69
2022/10/13 01:08:42;;;;;;;12.53;5.27;;;9.40;99.90;;;;;;5096641;28;20454;-70
2022/10/13 01:11:23;;;;;;;10.20;5.67;;;9.40;99.90;;;;;;5095459;28;20464;-70
2022/10/13 01:13:58;;;;;;;19.30;7.77;;;9.40;99.90;;;;;;5095430;28;20442;-69
2022/10/13 01:16:35;;;;;;;11.80;7.03;;;9.40;99.90;;;;;;5095491;28;20444;-69
2022/10/13 01:19:20;;;;;;;9.60;5.93;;;9.40;99.90;;;;;;5095646;28;20449;-69
2022/10/13 01:21:59;;;;;;;7.83;6.20;;;9.40;99.90;;;;;;5095632;28;20494;-69
2022/10/13 01:24:46;;;;;;;7.80;6.00;;;9.40;99.90;;;;;;5096646;28;20484;-70
2022/10/13 01:27:30;;;;;;;9.87;7.47;;;9.40;99.90;;;;;;5099326;28;20437;-69
2022/10/13 01:30:06;;;;;;;15.43;5.60;;;9.30;99.90;;;;;;5099511;28;20533;-69
2022/10/13 01:32:52;;;;;;;10.13;6.30;;;9.30;99.90;;;;;;5099009;28;20459;-69
2022/10/13 01:35:23;;;;;;;7.83;5.90;;;9.30;99.90;;;;;;5095614;28;20461;-70
2022/10/13 01:37:55;;;;;;;10.73;6.83;;;9.20;99.90;;;;;;5098716;28;20441;-68
2022/10/13 01:40:26;;;;;;;9.80;5.63;;;9.20;99.90;;;;;;5099046;28;20437;-70
2022/10/13 01:42:58;;;;;;;10.73;6.20;;;9.20;99.90;;;;;;5098888;28;20453;-69
2022/10/13 01:45:31;;;;;;;18.73;6.37;;;9.10;99.90;;;;;;5098527;28;20469;-70
2022/10/13 01:48:01;;;;;;;10.77;6.20;;;9.10;99.90;;;;;;5098672;28;20540;-70
2022/10/13 01:50:29;;;;;;;17.17;6.83;;;9.10;99.90;;;;;;5098274;28;20914;-68
2022/10/13 01:52:58;;;;;;;10.87;6.70;;;9.10;99.90;;;;;;5098352;28;20463;-70
2022/10/13 01:55:25;;;;;;;8.73;6.90;;;9.10;99.90;;;;;;5098479;28;20857;-68
2022/10/13 01:57:52;;;;;;;9.93;6.47;;;9.10;99.90;;;;;;5098211;28;20463;-69
2022/10/13 02:00:22;;;;;;;9.20;6.10;;;9.10;99.90;;;;;;5098263;28;20498;-69
2022/10/13 02:03:00;;;;;;;11.33;7.10;;;9.00;99.90;;;;;;5098490;28;20766;-69
2022/10/13 02:05:38;;;;;;;10.20;6.40;;;9.00;99.90;;;;;;5097884;28;20490;-69
2022/10/13 02:08:09;;;;;;;12.80;7.10;;;9.00;99.90;;;;;;5098182;28;20452;-69
2022/10/13 02:10:45;;;;;;;7.80;6.00;;;9.00;99.90;;;;;;5097975;28;20457;-69
2022/10/13 02:13:14;;;;;;;12.40;6.37;;;9.00;99.90;;;;;;5098338;28;20442;-69
2022/10/13 02:15:44;;;;;;;12.03;7.73;;;9.00;99.90;;;;;;5098490;28;20781;-69
2022/10/13 02:18:16;;;;;;;10.80;7.00;;;9.00;99.90;;;;;;5098218;28;20453;-68
2022/10/13 02:20:44;;;;;;;14.40;7.13;;;9.00;99.90;;;;;;5098134;28;20441;-68
2022/10/13 02:23:14;;;;;;;16.27;6.40;;;9.00;99.90;;;;;;5098097;28;20460;-68
2022/10/13 02:25:43;;;;;;;15.27;6.00;;;9.00;99.90;;;;;;5097593;28;20572;-68
2022/10/13 02:28:10;;;;;;;12.03;6.33;;;8.90;99.90;;;;;;5097950;28;20454;-69
2022/10/13 02:30:40;;;;;;;10.20;6.50;;;8.90;99.90;;;;;;5097893;28;20830;-68
2022/10/13 02:33:08;;;;;;;10.77;6.63;;;8.90;99.90;;;;;;5097738;28;20453;-69
2022/10/13 02:35:36;;;;;;;12.20;6.73;;;8.90;99.90;;;;;;5097239;28;20512;-68
2022/10/13 02:38:03;;;;;;;9.50;6.40;;;8.90;99.90;;;;;;5098136;28;20453;-69
2022/10/13 02:40:30;;;;;;;10.87;6.60;;;8.90;99.90;;;;;;5098166;28;20754;-69
2022/10/13 02:42:57;;;;;;;10.10;6.30;;;8.90;99.90;;;;;;5097951;28;20453;-69
2022/10/13 02:45:24;;;;;;;13.47;7.20;;;8.90;99.90;;;;;;5098356;28;20477;-69
2022/10/13 02:47:51;;;;;;;15.87;7.07;;;8.90;99.90;;;;;;5098173;28;20804;-69
2022/10/13 02:50:18;;;;;;;7.70;6.40;;;8.90;99.90;;;;;;5098098;28;20553;-69
2022/10/13 02:52:46;;;;;;;9.33;6.83;;;8.90;99.90;;;;;;5097916;28;20453;-69
2022/10/13 02:55:13;;;;;;;10.73;7.80;;;8.90;99.90;;;;;;5098098;28;20540;-69
2022/10/13 02:57:40;;;;;;;10.27;6.90;;;9.00;99.90;;;;;;5098197;28;20751;-69
2022/10/13 03:00:08;;;;;;;9.20;6.70;;;8.90;99.90;;;;;;5099143;28;20538;-69
2022/10/13 03:02:35;;;;;;;10.67;7.63;;;8.90;99.90;;;;;;5097928;28;20463;-69
2022/10/13 03:05:02;;;;;;;12.00;6.47;;;8.90;99.90;;;;;;5097647;28;20508;-69
2022/10/13 03:07:28;;;;;;;12.67;6.67;;;8.90;99.90;;;;;;5098033;28;20548;-69
2022/10/13 03:09:56;;;;;;;12.20;7.33;;;8.90;99.90;;;;;;5097992;28;20454;-69
2022/10/13 03:12:23;;;;;;;14.20;7.17;;;8.90;99.90;;;;;;5096879;28;20458;-69
2022/10/13 03:14:50;;;;;;;10.00;7.00;;;8.90;99.90;;;;;;5097423;28;20454;-69
2022/10/13 03:17:17;;;;;;;9.97;6.70;;;8.90;99.90;;;;;;5097030;28;20457;-69
2022/10/13 03:19:44;;;;;;;10.23;7.50;;;8.80;99.90;;;;;;5096777;28;20454;-69
2022/10/13 03:22:13;;;;;;;17.43;7.10;;;8.80;99.90;;;;;;5097617;28;20752;-69
2022/10/13 03:24:40;;;;;;;10.63;6.90;;;8.80;99.90;;;;;;5097655;28;20646;-69
2022/10/13 03:27:08;;;;;;;11.07;7.20;;;8.70;99.90;;;;;;5096628;28;20564;-69
2022/10/13 03:29:35;;;;;;;9.40;7.07;;;8.70;99.90;;;;;;5096005;28;20553;-68
2022/10/13 03:32:02;;;;;;;11.43;7.10;;;8.70;99.90;;;;;;5096000;28;20453;-68
2022/10/13 03:34:29;;;;;;;11.13;6.93;;;8.70;99.90;;;;;;5096189;28;20518;-68
2022/10/13 03:36:56;;;;;;;11.00;8.37;;;8.70;99.90;;;;;;5096625;28;20453;-68
2022/10/13 03:39:23;;;;;;;9.37;7.00;;;8.70;99.90;;;;;;5095606;28;20493;-69
2022/10/13 03:41:50;;;;;;;11.20;7.20;;;8.70;99.90;;;;;;5095629;28;20453;-68
2022/10/13 03:44:18;;;;;;;15.40;7.07;;;8.60;99.90;;;;;;5095724;28;20453;-69
2022/10/13 03:46:45;;;;;;;13.93;8.23;;;8.60;99.90;;;;;;5095678;28;20517;-68
2022/10/13 03:49:12;;;;;;;10.47;7.53;;;8.70;99.90;;;;;;5095933;28;20463;-68
2022/10/13 03:51:39;;;;;;;12.77;6.97;;;8.70;99.90;;;;;;5095813;28;20548;-68
2022/10/13 03:54:06;;;;;;;15.57;8.20;;;8.70;99.90;;;;;;5095761;28;20464;-68
2022/10/13 03:56:33;;;;;;;15.70;7.20;;;8.70;99.90;;;;;;5095253;28;20455;-69
2022/10/13 03:59:03;;;;;;;11.80;7.13;;;8.70;99.90;;;;;;5095390;28;20543;-69
2022/10/13 04:01:33;;;;;;;12.60;7.30;;;8.70;99.90;;;;;;5095784;28;20442;-69
2022/10/13 04:04:02;;;;;;;10.40;7.57;;;8.80;99.90;;;;;;5096047;28;20543;-69
2022/10/13 04:06:29;;;;;;;14.30;8.23;;;8.80;99.90;;;;;;5095706;28;20493;-69
2022/10/13 04:08:57;;;;;;;13.50;7.30;;;8.80;99.90;;;;;;5095700;28;20465;-69
2022/10/13 04:11:24;;;;;;;13.90;8.33;;;8.80;99.90;;;;;;5095655;28;20450;-69
2022/10/13 04:13:51;;;;;;;11.73;7.63;;;8.80;99.90;;;;;;5095400;28;20449;-69
2022/10/13 04:16:22;;;;;;;13.50;8.13;;;8.80;99.90;;;;;;5095672;28;20460;-69
2022/10/13 04:18:54;;;;;;;10.43;7.77;;;8.90;99.90;;;;;;5095071;28;20886;-69
2022/10/13 04:21:22;;;;;;;12.70;7.77;;;8.90;99.90;;;;;;5095197;28;20777;-69
2022/10/13 04:23:49;;;;;;;20.33;7.83;;;8.90;99.90;;;;;;5095084;28;20481;-69
2022/10/13 04:26:17;;;;;;;14.00;6.93;;;8.90;99.90;;;;;;5095341;28;20478;-69
2022/10/13 04:28:45;;;;;;;13.47;8.07;;;8.90;99.90;;;;;;5095579;28;20453;-69
2022/10/13 04:31:12;;;;;;;11.00;7.87;;;8.90;99.90;;;;;;5095253;28;20453;-69
2022/10/13 04:33:39;;;;;;;17.83;8.37;;;8.90;99.90;;;;;;5095235;28;20836;-69
2022/10/13 04:36:10;;;;;;;16.43;8.00;;;8.90;99.90;;;;;;5095076;28;20540;-69
2022/10/13 04:38:37;;;;;;;12.17;7.37;;;8.90;99.90;;;;;;5094577;28;20434;-69
2022/10/13 04:41:04;;;;;;;11.00;7.87;;;8.90;99.90;;;;;;5094735;28;20535;-69
2022/10/13 04:43:32;;;;;;;9.53;7.13;;;8.90;99.90;;;;;;5095094;28;20468;-68
2022/10/13 04:46:01;;;;;;;9.60;7.47;;;8.90;99.90;;;;;;5094647;28;20508;-68
2022/10/13 04:48:28;;;;;;;13.60;7.30;;;8.90;99.90;;;;;;5094377;28;20491;-68
2022/10/13 04:51:02;;;;;;;12.27;8.33;;;8.90;99.90;;;;;;5094455;28;20910;-68
2022/10/13 04:53:30;;;;;;;14.03;8.17;;;8.90;99.90;;;;;;5094695;28;20454;-68
2022/10/13 04:56:01;;;;;;;14.83;10.33;;;9.00;99.90;;;;;;5094587;28;20560;-68
2022/10/13 04:58:28;;;;;;;17.87;9.40;;;9.00;99.90;;;;;;5094133;28;20452;-69
2022/10/13 05:00:55;;;;;;;13.30;8.33;;;8.90;99.90;;;;;;5094666;28;20544;-69
2022/10/13 05:03:22;;;;;;;15.57;8.93;;;9.00;99.90;;;;;;5094503;28;20526;-68
2022/10/13 05:05:49;;;;;;;13.47;9.23;;;9.00;99.90;;;;;;5094393;28;20481;-70
2022/10/13 05:08:15;;;;;;;14.77;9.90;;;9.00;99.90;;;;;;5094214;28;20449;-68
2022/10/13 05:10:52;;;;;;;16.13;11.23;;;8.90;99.90;;;;;;5094394;28;20460;-67
2022/10/13 05:13:19;;;;;;;17.27;8.97;;;9.00;99.90;;;;;;5095720;28;20740;-70
2022/10/13 05:15:46;;;;;;;12.90;7.73;;;8.90;99.90;;;;;;5095096;28;20543;-70
2022/10/13 05:18:12;;;;;;;14.27;9.40;;;9.00;99.90;;;;;;5094678;28;20460;-69
2022/10/13 05:20:39;;;;;;;11.80;9.00;;;9.00;99.90;;;;;;5094952;28;20456;-69
2022/10/13 05:23:06;;;;;;;15.87;8.50;;;9.00;99.90;;;;;;5095457;28;20540;-69
2022/10/13 05:25:34;;;;;;;14.63;9.27;;;8.90;99.90;;;;;;5094600;28;20505;-69
2022/10/13 05:28:03;;;;;;;14.43;9.60;;;8.90;99.90;;;;;;5094715;28;20467;-69
2022/10/13 05:30:30;;;;;;;14.50;8.53;;;8.90;99.90;;;;;;5094715;28;20514;-69
2022/10/13 05:32:57;;;;;;;43.27;28.53;;;8.90;99.90;;;;;;5094353;28;20514;-69
2022/10/13 05:35:24;;;;;;;19.73;12.40;;;8.90;99.90;;;;;;5094699;28;20530;-69
2022/10/13 05:37:50;;;;;;;14.13;9.77;;;9.00;99.90;;;;;;5094648;28;20450;-68
2022/10/13 05:40:20;;;;;;;25.50;14.77;;;9.00;99.90;;;;;;5094369;28;20543;-68
2022/10/13 05:42:46;;;;;;;15.80;10.90;;;9.00;99.90;;;;;;5094321;28;20544;-68
2022/10/13 05:45:15;;;;;;;16.00;8.60;;;9.00;99.90;;;;;;5094716;28;20450;-68
2022/10/13 05:47:42;;;;;;;18.00;9.10;;;9.10;99.90;;;;;;5094899;28;20539;-69
2022/10/13 05:50:09;;;;;;;15.40;8.67;;;9.10;99.90;;;;;;5094627;28;20463;-69
2022/10/13 05:52:37;;;;;;;11.93;8.47;;;9.10;99.90;;;;;;5094548;28;20540;-70
2022/10/13 05:55:08;;;;;;;13.90;8.73;;;9.10;99.90;;;;;;5094538;28;20453;-69
2022/10/13 05:57:39;;;;;;;13.00;9.20;;;9.20;99.90;;;;;;5094441;28;20434;-70
2022/10/13 06:00:09;;;;;;;11.60;8.13;;;9.10;99.90;;;;;;5094535;28;20506;-68
2022/10/13 06:02:41;;;;;;;13.00;8.80;;;9.10;99.90;;;;;;5094542;28;20513;-70
2022/10/13 06:05:13;;;;;;;14.00;9.80;;;9.10;99.90;;;;;;5094969;28;20907;-69
2022/10/13 06:07:41;;;;;;;16.07;10.27;;;9.20;99.90;;;;;;5094748;28;20493;-69
2022/10/13 06:10:09;;;;;;;17.03;9.17;;;9.20;99.90;;;;;;5094620;28;20469;-69
2022/10/13 06:12:36;;;;;;;10.30;8.20;;;9.20;99.90;;;;;;5097694;28;20460;-69
2022/10/13 06:15:04;;;;;;;12.90;9.33;;;9.20;99.90;;;;;;5098388;28;20484;-69
2022/10/13 06:17:30;;;;;;;14.27;9.87;;;9.20;99.90;;;;;;5098201;28;20453;-69
2022/10/13 06:19:59;;;;;;;15.77;10.40;;;9.20;99.90;;;;;;5098188;28;20944;-69
2022/10/13 06:22:26;;;;;;;12.73;9.43;;;9.20;99.90;;;;;;5097916;28;20913;-68
2022/10/13 06:24:53;;;;;;;12.60;9.17;;;9.20;99.90;;;;;;5097791;28;21048;-70
2022/10/13 06:27:20;;;;;;;15.43;9.53;;;9.20;99.90;;;;;;5098462;28;20629;-69
2022/10/13 06:29:47;;;;;;;19.40;11.70;;;9.20;99.90;;;;;;5098298;28;20547;-69
2022/10/13 06:32:14;;;;;;;35.20;24.03;;;9.30;99.90;;;;;;5098212;28;20453;-69
2022/10/13 06:34:43;;;;;;;22.17;14.23;;;9.30;99.90;;;;;;5098078;28;20524;-69
2022/10/13 06:37:11;;;;;;;14.57;9.70;;;9.40;99.90;;;;;;5097968;28;20457;-69
2022/10/13 06:39:38;;;;;;;15.60;11.47;;;9.40;99.90;;;;;;5097610;28;20952;-69
2022/10/13 06:42:05;;;;;;;16.20;10.60;;;9.40;99.90;;;;;;5097505;28;20804;-69
2022/10/13 06:44:32;;;;;;;12.30;10.27;;;9.30;99.90;;;;;;5097182;28;20485;-69
2022/10/13 06:46:59;;;;;;;14.90;10.60;;;9.30;99.90;;;;;;5097847;28;20488;-69
2022/10/13 06:49:26;;;;;;;14.30;10.40;;;9.30;99.90;;;;;;5097942;28;20481;-69
2022/10/13 06:51:53;;;;;;;20.53;10.73;;;9.30;99.90;;;;;;5097650;28;20463;-69
2022/10/13 06:54:22;;;;;;;17.90;10.90;;;9.40;99.90;;;;;;5098309;28;20489;-68
2022/10/13 06:56:48;;;;;;;12.60;10.27;;;9.40;99.90;;;;;;5097675;28;20581;-70
2022/10/13 06:59:16;;;;;;;16.37;10.47;;;9.40;99.90;;;;;;5097040;28;20464;-69
2022/10/13 07:01:43;;;;;;;21.27;11.37;;;9.40;99.90;;;;;;5097145;28;20564;-69
2022/10/13 07:04:10;;;;;;;12.43;10.33;;;9.40;99.90;;;;;;5097278;28;20529;-70
2022/10/13 07:06:36;;;;;;;21.20;11.60;;;9.50;99.90;;;;;;5096654;28;20505;-70
2022/10/13 07:09:04;;;;;;;17.73;11.07;;;9.50;99.90;;;;;;5097262;28;20457;-69
2022/10/13 07:11:33;;;;;;;22.03;13.53;;;9.60;99.90;;;;;;5096740;28;20457;-69
2022/10/13 07:14:00;;;;;;;21.53;12.23;;;9.60;99.90;;;;;;5097500;28;20458;-69
2022/10/13 07:16:27;;;;;;;18.10;11.23;;;9.60;99.90;;;;;;5097282;28;20453;-69
2022/10/13 07:18:53;;;;;;;24.20;11.90;;;9.70;99.90;;;;;;5097218;28;20859;-69
2022/10/13 07:21:21;;;;;;;18.17;13.30;;;9.80;99.90;;;;;;5096912;28;20563;-68
2022/10/13 07:23:48;;;;;;;20.40;12.07;;;9.90;99.90;;;;;;5096670;28;20477;-69
2022/10/13 07:26:16;;;;;;;21.23;12.47;;;10.00;99.90;;;;;;5096472;28;20438;-69
2022/10/13 07:28:44;;;;;;;15.53;11.47;;;10.00;99.90;;;;;;5097519;28;20738;-69
2022/10/13 07:31:14;;;;;;;17.30;11.67;;;10.10;99.90;;;;;;5097241;28;20453;-69
2022/10/13 07:33:41;;;;;;;15.03;11.20;;;10.20;99.90;;;;;;5097319;28;20479;-68
2022/10/13 07:36:09;;;;;;;16.20;11.97;;;10.20;99.90;;;;;;5096461;28;20932;-69
2022/10/13 07:38:36;;;;;;;19.33;12.03;;;10.30;99.90;;;;;;5096644;28;20957;-70
2022/10/13 07:41:05;;;;;;;16.67;12.37;;;10.40;99.90;;;;;;5095985;28;20462;-69
2022/10/13 07:43:32;;;;;;;22.40;12.47;;;10.50;99.90;;;;;;5097227;28;20453;-69
2022/10/13 07:46:01;;;;;;;17.30;11.73;;;10.60;99.90;;;;;;5096391;28;20530;-70
2022/10/13 07:48:28;;;;;;;23.67;11.37;;;10.70;99.90;;;;;;5096817;28;20482;-69
2022/10/13 07:50:55;;;;;;;19.17;12.80;;;10.70;99.90;;;;;;5096524;28;20792;-69
2022/10/13 07:53:22;;;;;;;16.17;11.60;;;10.80;99.90;;;;;;5097097;28;20548;-69
2022/10/13 07:55:49;;;;;;;19.50;12.50;;;10.90;99.90;;;;;;5097619;28;20909;-69
2022/10/13 07:58:16;;;;;;;19.60;11.87;;;11.00;99.90;;;;;;5098476;28;20537;-69
2022/10/13 08:00:42;;;;;;;20.80;12.67;;;11.10;99.90;;;;;;5095971;28;20464;-69
2022/10/13 08:03:11;;;;;;;22.17;14.80;;;11.20;99.90;;;;;;5096645;28;20457;-69
2022/10/13 08:05:38;;;;;;;22.10;12.30;;;11.30;99.90;;;;;;5096530;28;20489;-70
2022/10/13 08:08:05;;;;;;;17.37;12.37;;;11.40;99.90;;;;;;5096785;28;20545;-69
2022/10/13 08:10:31;;;;;;;18.43;12.87;;;11.50;99.90;;;;;;5098123;28;20510;-69
2022/10/13 08:12:58;;;;;;;18.77;12.60;;;11.60;99.90;;;;;;5097544;28;20548;-68
2022/10/13 08:15:25;;;;;;;22.73;13.17;;;11.80;99.90;;;;;;5098264;28;20564;-69
2022/10/13 08:17:52;;;;;;;15.70;12.80;;;11.90;99.90;;;;;;5098579;28;20449;-69
2022/10/13 08:20:20;;;;;;;23.93;13.53;;;12.10;99.90;;;;;;5098083;28;20500;-69
2022/10/13 08:22:47;;;;;;;17.53;12.60;;;12.20;99.90;;;;;;5097372;28;20500;-69
2022/10/13 08:25:14;;;;;;;18.63;13.10;;;12.30;99.90;;;;;;5097528;28;20560;-70
2022/10/13 08:27:41;;;;;;;19.90;12.70;;;12.40;99.90;;;;;;5096727;28;20542;-69
2022/10/13 08:30:09;;;;;;;21.43;13.37;;;12.50;99.90;;;;;;5097622;28;20453;-70
2022/10/13 08:32:36;;;;;;;16.47;12.10;;;12.50;99.90;;;;;;5097170;28;20455;-69
2022/10/13 08:35:02;;;;;;;19.60;13.10;;;12.50;99.90;;;;;;5096227;28;20553;-69
2022/10/13 08:37:31;;;;;;;17.73;12.03;;;12.60;99.90;;;;;;5096663;28;20989;-69
2022/10/13 08:39:57;;;;;;;17.93;11.90;;;12.60;99.90;;;;;;5096947;28;20453;-68
2022/10/13 08:42:24;;;;;;;22.20;13.03;;;12.70;99.90;;;;;;5097859;28;20545;-68
2022/10/13 08:44:54;;;;;;;16.17;12.57;;;12.80;99.90;;;;;;5097406;28;20487;-69
2022/10/13 08:47:33;;;;;;;13.57;11.40;;;12.90;99.90;;;;;;5097802;28;20491;-69
2022/10/13 08:50:04;;;;;;;20.03;12.83;;;12.90;99.90;;;;;;5098584;28;20539;-69
2022/10/13 08:52:46;;;;;;;17.53;12.23;;;13.00;99.90;;;;;;5097220;28;20864;-69
2022/10/13 08:55:22;;;;;;;21.03;11.40;;;13.10;99.90;;;;;;5097400;28;20438;-69
2022/10/13 08:57:49;;;;;;;17.90;12.00;;;13.20;99.90;;;;;;5099101;28;20434;-70
2022/10/13 09:00:17;;;;;;;13.80;11.57;;;13.30;99.90;;;;;;5099229;28;20544;-69
2022/10/13 09:02:44;;;;;;;14.77;11.73;;;13.40;99.90;;;;;;5098357;28;20552;-69
2022/10/13 09:05:18;;;;;;;21.93;12.37;;;13.50;99.90;;;;;;5098222;28;20838;-70
2022/10/13 09:07:47;;;;;;;17.00;11.77;;;13.60;99.90;;;;;;5097035;28;20522;-69
2022/10/13 09:10:15;;;;;;;21.07;12.40;;;13.70;99.90;;;;;;5095614;28;20457;-69
2022/10/13 09:12:42;;;;;;;21.63;11.90;;;13.80;99.90;;;;;;5096449;28;20862;-69
2022/10/13 09:15:11;;;;;;;17.50;13.60;;;13.90;99.90;;;;;;5097026;28;20545;-69
2022/10/13 09:17:39;;;;;;;17.50;12.73;;;14.00;99.90;;;;;;5098345;28;20993;-69
2022/10/13 09:20:15;;;;;;;17.13;12.63;;;14.10;99.90;;;;;;5098758;28;20492;-70
2022/10/13 09:22:42;;;;;;;19.77;12.50;;;14.10;99.90;;;;;;5098355;28;20470;-70
2022/10/13 09:25:18;;;;;;;14.47;11.23;;;14.10;99.90;;;;;;5098266;28;20557;-69
2022/10/13 09:27:48;;;;;;;19.70;14.00;;;14.20;99.90;;;;;;5098473;28;20472;-71
2022/10/13 09:30:28;;;;;;;18.13;13.20;;;14.20;99.90;;;;;;5099497;28;20536;-69
2022/10/13 09:33:20;;;;;;;19.97;12.83;;;14.30;99.90;;;;;;5099030;28;20505;-69
2022/10/13 09:35:49;;;;;;;19.70;12.70;;;14.40;99.90;;;;;;5093422;28;20562;-69
2022/10/13 09:38:18;;;;;;;17.20;12.90;;;14.50;99.90;;;;;;5098320;28;21010;-70
2022/10/13 09:41:02;;;;;;;20.13;13.87;;;14.50;99.90;;;;;;5098876;28;20489;-70
2022/10/13 09:43:32;;;;;;;17.17;12.80;;;14.50;99.90;;;;;;5099375;28;20452;-69
2022/10/13 09:46:01;;;;;;;17.30;13.17;;;14.60;99.90;;;;;;5101232;28;20544;-70
2022/10/13 09:48:30;;;;;;;19.63;12.63;;;14.80;99.90;;;;;;5102546;28;20500;-71
2022/10/13 09:50:58;;;;;;;15.47;12.70;;;14.90;99.90;;;;;;5101384;28;20543;-70
2022/10/13 09:53:31;;;;;;;18.20;12.90;;;15.00;99.90;;;;;;5099903;28;20453;-70
2022/10/13 09:56:20;;;;;;;20.73;14.00;;;15.10;99.90;;;;;;5101718;28;20472;-70
2022/10/13 09:58:53;;;;;;;16.10;12.33;;;15.20;99.90;;;;;;5101900;28;20948;-69
2022/10/13 10:01:25;;;;;;;24.03;14.30;;;15.30;99.90;;;;;;5102287;28;20501;-70
2022/10/13 10:03:53;;;;;;;21.27;12.63;;;15.40;99.90;;;;;;5101842;28;20548;-68
2022/10/13 10:06:20;;;;;;;15.30;12.47;;;15.50;99.90;;;;;;5102273;28;20548;-70
2022/10/13 10:08:55;;;;;;;20.00;12.83;;;15.60;99.90;;;;;;5100072;28;20473;-70
2022/10/13 10:11:29;;;;;;;16.13;12.53;;;15.60;99.90;;;;;;5101138;28;20526;-69
2022/10/13 10:13:56;;;;;;;20.50;13.23;;;15.70;99.90;;;;;;5101923;28;20528;-70
2022/10/13 10:16:30;;;;;;;20.73;12.60;;;15.70;99.90;;;;;;5101524;28;20454;-70
2022/10/13 10:19:03;;;;;;;22.23;13.10;;;15.90;99.90;;;;;;5100128;28;20878;-70
2022/10/13 10:21:38;;;;;;;19.37;13.80;;;15.90;99.90;;;;;;5100126;28;20451;-70
2022/10/13 10:24:16;;;;;;;19.87;13.00;;;15.90;99.90;;;;;;5099528;28;20554;-69
2022/10/13 10:26:54;;;;;;;20.63;13.40;;;15.90;99.90;;;;;;5099486;28;20532;-70
2022/10/13 10:29:33;;;;;;;18.57;14.30;;;15.80;99.90;;;;;;5100106;28;20469;-70
2022/10/13 10:32:14;;;;;;;22.20;14.67;;;15.90;99.90;;;;;;5099929;28;20528;-71
2022/10/13 10:34:49;;;;;;;19.10;14.97;;;16.00;99.90;;;;;;5100423;28;20438;-69
2022/10/13 10:37:31;;;;;;;19.50;13.20;;;16.10;99.90;;;;;;5099793;28;20533;-71
2022/10/13 10:40:06;;;;;;;20.07;14.40;;;16.30;99.90;;;;;;5098500;28;20900;-69
2022/10/13 10:43:02;;;;;;;23.63;13.53;;;16.40;99.90;;;;;;5097331;28;20442;-68
2022/10/13 10:45:34;;;;;;;19.63;13.30;;;16.50;99.90;;;;;;5098448;28;20443;-68
2022/10/13 10:48:07;;;;;;;19.47;13.27;;;16.70;99.90;;;;;;5097914;28;20465;-69
2022/10/13 10:50:34;;;;;;;17.53;14.20;;;16.90;99.90;;;;;;5099142;28;20441;-70
2022/10/13 10:53:06;;;;;;;21.00;13.77;;;17.00;99.90;;;;;;5100441;28;20453;-69
2022/10/13 10:55:38;;;;;;;20.43;13.20;;;17.10;99.90;;;;;;5099588;28;20532;-70
2022/10/13 10:58:20;;;;;;;26.60;17.30;;;17.10;99.90;;;;;;5097895;28;20459;-69
2022/10/13 11:00:53;;;;;;;15.90;13.20;;;17.20;99.90;;;;;;5100412;28;20441;-70
2022/10/13 11:03:34;;;;;;;18.83;13.60;;;17.30;99.90;;;;;;5099964;28;20559;-71
2022/10/13 11:06:04;;;;;;;24.43;15.57;;;17.40;99.90;;;;;;5099933;28;20437;-70
2022/10/13 11:08:39;;;;;;;18.50;12.70;;;17.40;99.90;;;;;;5100007;28;20553;-70
2022/10/13 11:11:32;;;;;;;16.07;12.80;;;17.50;99.90;;;;;;5099477;28;20433;-70
2022/10/13 11:14:12;;;;;;;19.60;14.73;;;17.50;99.90;;;;;;5097876;28;20467;-69
2022/10/13 11:16:41;;;;;;;16.93;13.07;;;17.60;99.90;;;;;;5098121;28;20882;-69
2022/10/13 11:19:29;;;;;;;17.00;13.83;;;17.70;99.90;;;;;;5098373;28;20536;-69
2022/10/13 11:22:24;;;;;;;16.30;13.47;;;17.70;99.90;;;;;;5099122;28;20449;-69
2022/10/13 11:24:56;;;;;;;18.00;11.70;;;17.80;99.90;;;;;;5097463;28;20482;-69
2022/10/13 11:27:27;;;;;;;19.00;13.73;;;17.90;99.90;;;;;;5099389;28;20477;-70
2022/10/13 11:29:57;;;;;;;16.37;12.43;;;18.00;99.90;;;;;;5099328;28;20437;-69
2022/10/13 11:32:55;;;;;;;18.13;13.57;;;18.10;99.90;;;;;;5100598;28;20437;-69
2022/10/13 11:35:25;;;;;;;16.90;13.00;;;18.30;99.90;;;;;;5099849;28;20442;-69
2022/10/13 11:38:16;;;;;;;14.67;11.83;;;18.40;99.90;;;;;;5099687;28;20473;-69
2022/10/13 11:40:59;;;;;;;20.17;12.07;;;18.30;99.90;;;;;;5098270;28;20457;-70
2022/10/13 11:43:36;;;;;;;17.43;12.10;;;18.30;99.90;;;;;;5101170;28;20441;-70
2022/10/13 11:46:21;;;;;;;19.30;12.27;;;18.30;99.90;;;;;;5102117;28;20909;-70
2022/10/13 11:49:30;;;;;;;12.23;10.80;;;18.30;99.90;;;;;;5101145;28;20529;-70
2022/10/13 11:52:24;;;;;;;14.27;11.90;;;18.30;99.90;;;;;;5099186;28;20788;-70
2022/10/13 11:54:55;;;;;;;17.97;12.30;;;18.30;99.90;;;;;;5101194;28;20798;-69
2022/10/13 11:57:24;;;;;;;16.30;11.43;;;18.50;99.90;;;;;;5100121;28;20499;-69
2022/10/13 11:59:54;;;;;;;26.30;11.53;;;18.60;99.90;;;;;;5102205;28;20528;-69
2022/10/13 12:02:24;;;;;;;18.93;11.93;;;18.60;99.90;;;;;;5102668;28;20476;-69
2022/10/13 12:05:07;;;;;;;13.50;10.93;;;19.00;99.90;;;;;;5101319;28;20456;-71
2022/10/13 12:07:36;;;;;;;13.27;10.57;;;19.50;99.90;;;;;;5099619;28;20433;-69
2022/10/13 12:10:07;;;;;;;12.87;10.70;;;19.40;99.90;;;;;;5101100;28;20992;-70
2022/10/13 12:12:34;;;;;;;14.60;9.57;;;19.30;99.90;;;;;;5098980;28;20452;-69
2022/10/13 12:15:01;;;;;;;14.13;10.20;;;19.10;99.90;;;;;;5100000;28;20453;-69
2022/10/13 12:17:32;;;;;;;12.90;8.73;;;19.00;99.90;;;;;;5099198;28;20453;-68
2022/10/13 12:20:00;;;;;;;10.90;8.50;;;19.00;99.90;;;;;;5099761;28;20560;-73
2022/10/13 12:22:28;;;;;;;17.20;9.03;;;18.90;99.90;;;;;;5097926;28;20804;-70
2022/10/13 12:24:59;;;;;;;14.97;9.70;;;18.70;99.90;;;;;;5099103;28;20757;-70
2022/10/13 12:27:27;;;;;;;15.87;9.10;;;18.60;99.90;;;;;;5097154;28;20463;-69
2022/10/13 12:29:54;;;;;;;12.10;9.47;;;18.50;99.90;;;;;;5095352;28;20484;-66
2022/10/13 12:32:23;;;;;;;12.00;8.70;;;18.40;99.90;;;;;;5094404;28;20460;-68
2022/10/13 12:34:52;;;;;;;12.57;8.40;;;18.30;99.90;;;;;;5094639;28;20530;-66
2022/10/13 12:37:27;;;;;;;10.20;8.03;;;18.20;99.90;;;;;;5094564;28;20496;-67
2022/10/13 12:39:55;;;;;;;16.00;8.30;;;18.30;99.90;;;;;;5094534;28;20438;-67
2022/10/13 12:42:30;;;;;;;12.73;8.50;;;18.30;99.90;;;;;;5094708;28;20461;-67
2022/10/13 12:44:58;;;;;;;11.87;7.60;;;18.50;99.90;;;;;;5094345;28;20437;-67
2022/10/13 12:47:40;;;;;;;15.07;7.43;;;18.70;99.90;;;;;;5094726;28;20464;-66
2022/10/13 12:50:35;;;;;;;10.27;7.70;;;18.90;99.90;;;;;;5094402;28;20469;-67
2022/10/13 12:53:29;;;;;;;12.57;7.67;;;18.90;99.90;;;;;;5094340;28;20934;-67
2022/10/13 12:55:59;;;;;;;15.73;8.37;;;18.70;99.90;;;;;;5094736;28;20533;-67